Time;durP1;ratioP1;P1;durP2;ratioP2;P2;SDS_P1;SDS_P2;PMS_P1;PMS_P2;Temp;Humidity;BMP_temperature;BMP_pressure;BME280_temperature;BME280_humidity;BME280_pressure;Samples;Min_cycle;Max_cycle;Signal;HPM_P1;HPM_P2
2023/05/21 00:01:16;;;;;;;;;;;;;;;15.28;56.24;92521.00;2051216;70;20070;-77
2023/05/21 00:03:44;;;;;;;;;;;;;;;15.31;56.90;92519.72;2050826;70;20099;-76
2023/05/21 00:06:12;;;;;;;;;;;;;;;15.32;56.40;92521.19;2051299;70;20065;-76
2023/05/21 00:08:38;;;;;;;;;;;;;;;15.31;56.14;92511.22;2051209;69;20050;-75
2023/05/21 00:11:04;;;;;;;;;;;;;;;15.32;55.86;92507.00;2051331;70;20043;-77
2023/05/21 00:13:29;;;;;;;;;;;;;;;15.32;55.77;92506.28;2051086;70;20047;-76
2023/05/21 00:15:55;;;;;;;;;;;;;;;15.07;57.36;92510.94;2051270;70;20181;-76
2023/05/21 00:18:21;;;;;;;;;;;;;;;14.95;57.97;92513.28;2052068;70;20055;-76
2023/05/21 00:20:46;;;;;;;;;;;;;;;15.10;57.20;92511.78;2051838;69;20062;-76
2023/05/21 00:23:12;;;;;;;;;;;;;;;15.04;57.73;92492.41;2051432;70;20094;-76
2023/05/21 00:25:37;;;;;;;;;;;;;;;15.12;57.06;92492.00;2051324;70;20050;-75
2023/05/21 00:28:03;;;;;;;;;;;;;;;14.76;57.62;92496.91;2050591;70;20182;-74
2023/05/21 00:30:28;;;;;;;;;;;;;;;14.95;57.27;92480.00;2051102;70;20142;-74
2023/05/21 00:32:54;;;;;;;;;;;;;;;15.06;56.59;92491.75;2051183;70;20051;-74
2023/05/21 00:35:19;;;;;;;;;;;;;;;14.85;57.84;92498.69;2051163;70;20055;-74
2023/05/21 00:37:46;;;;;;;;;;;;;;;14.90;57.80;92480.50;2051159;70;20057;-75
2023/05/21 00:40:12;;;;;;;;;;;;;;;14.71;57.67;92490.34;2051217;69;20225;-75
2023/05/21 00:42:38;;;;;;;;;;;;;;;14.73;57.73;92496.06;2051128;70;20145;-76
2023/05/21 00:45:04;;;;;;;;;;;;;;;14.88;57.32;92492.47;2050676;70;20054;-75
2023/05/21 00:47:29;;;;;;;;;;;;;;;15.00;57.29;92489.41;2051348;69;20058;-75
2023/05/21 00:49:55;;;;;;;;;;;;;;;14.97;57.33;92482.91;2050702;70;20480;-76
2023/05/21 00:52:21;;;;;;;;;;;;;;;14.85;58.24;92482.44;2051065;70;20057;-75
2023/05/21 00:54:50;;;;;;;;;;;;;;;14.95;56.80;92479.28;2050991;69;20099;-76
2023/05/21 00:57:19;;;;;;;;;;;;;;;14.85;58.42;92498.69;2050348;70;20141;-74
2023/05/21 00:59:46;;;;;;;;;;;;;;;14.60;58.77;92482.75;2047819;70;20043;-74
2023/05/21 01:02:16;;;;;;;;;;;;;;;14.59;59.90;92475.66;2050708;70;20063;-76
2023/05/21 01:04:45;;;;;;;;;;;;;;;14.52;59.08;92488.81;2051339;70;20430;-76
2023/05/21 01:07:13;;;;;;;;;;;;;;;14.57;58.87;92484.03;2051453;70;20050;-76
2023/05/21 01:09:42;;;;;;;;;;;;;;;14.78;57.97;92477.16;2050880;70;20150;-76
2023/05/21 01:12:12;;;;;;;;;;;;;;;14.85;57.38;92476.03;2050754;70;20158;-78
2023/05/21 01:14:42;;;;;;;;;;;;;;;14.78;58.06;92474.31;2051574;70;20054;-76
2023/05/21 01:17:11;;;;;;;;;;;;;;;14.69;59.25;92484.56;2050933;70;20051;-76
2023/05/21 01:19:37;;;;;;;;;;;;;;;14.79;58.09;92485.00;2051106;70;20069;-77
2023/05/21 01:22:05;;;;;;;;;;;;;;;14.77;58.56;92476.41;2050938;70;20047;-77
2023/05/21 01:24:31;;;;;;;;;;;;;;;14.83;57.50;92478.78;2051298;70;20062;-75
2023/05/21 01:26:57;;;;;;;;;;;;;;;14.75;58.21;92479.16;2050466;70;20058;-75
2023/05/21 01:29:23;;;;;;;;;;;;;;;14.65;59.09;92478.72;2050512;70;20055;-75
2023/05/21 01:32:04;;;;;;;;;;;;;;;14.73;58.38;92479.06;2051227;70;20078;-75
2023/05/21 01:34:39;;;;;;;;;;;;;;;14.70;58.68;92469.75;2050939;69;20121;-75
2023/05/21 01:37:13;;;;;;;;;;;;;;;14.58;59.04;92474.19;2050452;70;20051;-74
2023/05/21 01:39:42;;;;;;;;;;;;;;;14.47;59.19;92476.53;2050745;70;20069;-74
2023/05/21 01:42:09;;;;;;;;;;;;;;;14.51;58.94;92464.69;2050264;70;20071;-74
2023/05/21 01:44:35;;;;;;;;;;;;;;;14.09;60.83;92475.59;2050911;70;20557;-74
2023/05/21 01:47:01;;;;;;;;;;;;;;;14.39;58.83;92467.72;2051136;70;20501;-74
2023/05/21 01:49:27;;;;;;;;;;;;;;;14.39;59.72;92461.34;2050683;70;20047;-74
2023/05/21 01:51:54;;;;;;;;;;;;;;;14.27;59.91;92470.03;2051003;70;20577;-76
2023/05/21 01:54:20;;;;;;;;;;;;;;;14.15;60.37;92475.16;2050947;70;20495;-75
2023/05/21 01:56:46;;;;;;;;;;;;;;;14.08;60.86;92462.09;2050914;70;20537;-74
2023/05/21 01:59:12;;;;;;;;;;;;;;;14.20;60.45;92459.78;2050019;70;20129;-75
2023/05/21 02:01:37;;;;;;;;;;;;;;;14.21;60.99;92467.66;2049996;70;20051;-75
2023/05/21 02:04:03;;;;;;;;;;;;;;;14.22;59.57;92457.78;2050301;70;20505;-75
2023/05/21 02:06:30;;;;;;;;;;;;;;;14.22;60.66;92451.41;2050335;70;20061;-76
2023/05/21 02:08:56;;;;;;;;;;;;;;;13.94;61.21;92454.44;2050660;70;20082;-74
2023/05/21 02:11:22;;;;;;;;;;;;;;;13.75;61.51;92459.94;2050654;70;20059;-74
2023/05/21 02:13:47;;;;;;;;;;;;;;;13.97;60.92;92466.56;2050703;70;20047;-75
2023/05/21 02:16:14;;;;;;;;;;;;;;;13.97;60.94;92464.50;2050632;70;20043;-75
2023/05/21 02:18:42;;;;;;;;;;;;;;;13.88;60.64;92459.84;2051098;70;20063;-75
2023/05/21 02:21:08;;;;;;;;;;;;;;;13.95;60.53;92461.56;2050428;70;20054;-74
2023/05/21 02:23:34;;;;;;;;;;;;;;;13.87;61.78;92461.19;2051107;70;20153;-73
2023/05/21 02:26:00;;;;;;;;;;;;;;;13.81;61.79;92455.28;2050824;70;20114;-77
2023/05/21 02:28:26;;;;;;;;;;;;;;;14.05;60.35;92457.72;2050182;70;20532;-74
2023/05/21 02:30:51;;;;;;;;;;;;;;;13.53;62.73;92462.47;2050736;70;20125;-74
2023/05/21 02:33:19;;;;;;;;;;;;;;;13.78;61.38;92461.47;2050639;70;20050;-76
2023/05/21 02:35:45;;;;;;;;;;;;;;;13.86;60.65;92456.91;2047856;70;20115;-76
2023/05/21 02:38:12;;;;;;;;;;;;;;;13.88;60.59;92454.19;2047617;70;20063;-76
2023/05/21 02:40:38;;;;;;;;;;;;;;;13.87;60.22;92463.28;2047888;70;20051;-76
2023/05/21 02:43:03;;;;;;;;;;;;;;;13.87;60.73;92457.63;2047711;70;20094;-76
2023/05/21 02:45:30;;;;;;;;;;;;;;;13.54;62.37;92463.94;2047402;70;20125;-75
2023/05/21 02:47:56;;;;;;;;;;;;;;;13.56;62.38;92459.09;2047331;70;20082;-77
2023/05/21 02:50:22;;;;;;;;;;;;;;;13.64;62.15;92455.91;2047197;70;20448;-76
2023/05/21 02:52:53;;;;;;;;;;;;;;;13.73;61.29;92455.63;2047381;70;20074;-76
2023/05/21 02:55:18;;;;;;;;;;;;;;;13.78;60.78;92453.72;2047232;70;20067;-76
2023/05/21 02:57:44;;;;;;;;;;;;;;;13.70;61.54;92456.94;2047686;70;20122;-77
2023/05/21 03:00:10;;;;;;;;;;;;;;;13.74;61.33;92453.53;2047295;70;20100;-76
2023/05/21 03:02:37;;;;;;;;;;;;;;;13.62;61.63;92456.56;2047077;70;20049;-75
2023/05/21 03:05:04;;;;;;;;;;;;;;;13.66;61.58;92453.19;2047741;70;20066;-76
2023/05/21 03:07:29;;;;;;;;;;;;;;;13.61;61.64;92455.09;2047732;70;20059;-75
2023/05/21 03:09:55;;;;;;;;;;;;;;;13.53;62.49;92451.88;2047058;70;20122;-76
2023/05/21 03:12:20;;;;;;;;;;;;;;;13.26;63.31;92454.88;2047480;70;20071;-75
2023/05/21 03:14:47;;;;;;;;;;;;;;;12.87;64.42;92436.03;2047211;70;20102;-76
2023/05/21 03:17:14;;;;;;;;;;;;;;;13.30;62.92;92452.97;2047785;70;20091;-76
2023/05/21 03:19:40;;;;;;;;;;;;;;;13.30;63.14;92452.22;2047103;70;20047;-75
2023/05/21 03:22:06;;;;;;;;;;;;;;;13.41;61.75;92448.50;2048576;70;20095;-74
2023/05/21 03:24:35;;;;;;;;;;;;;;;13.34;62.49;92435.47;2050433;70;20502;-75
2023/05/21 03:27:02;;;;;;;;;;;;;;;13.37;62.67;92440.53;2050485;70;20051;-75
2023/05/21 03:29:27;;;;;;;;;;;;;;;13.34;62.01;92446.75;2053158;70;20046;-74
2023/05/21 03:31:53;;;;;;;;;;;;;;;13.06;64.09;92446.13;2050441;70;20089;-75
2023/05/21 03:34:19;;;;;;;;;;;;;;;13.26;62.73;92443.56;2050551;70;20749;-75
2023/05/21 03:36:45;;;;;;;;;;;;;;;13.31;62.07;92448.75;2050367;70;20154;-74
2023/05/21 03:39:11;;;;;;;;;;;;;;;13.05;63.16;92444.66;2050332;70;20161;-76
2023/05/21 03:41:37;;;;;;;;;;;;;;;12.87;63.89;92452.97;2050312;70;20066;-76
2023/05/21 03:44:09;;;;;;;;;;;;;;;13.10;63.13;92441.41;2050495;70;20051;-76
2023/05/21 03:46:58;;;;;;;;;;;;;;;12.87;63.71;92447.34;2047319;70;20097;-75
2023/05/21 03:49:30;;;;;;;;;;;;;;;13.12;63.13;92447.16;2053243;70;20047;-76
2023/05/21 03:51:57;;;;;;;;;;;;;;;12.81;64.48;92449.88;2050319;70;20137;-76
2023/05/21 03:54:23;;;;;;;;;;;;;;;12.97;63.48;92451.41;2050304;70;20184;-76
2023/05/21 03:56:51;;;;;;;;;;;;;;;13.15;62.61;92459.28;2050367;70;20521;-75
2023/05/21 03:59:16;;;;;;;;;;;;;;;13.17;63.13;92453.72;2050367;70;20047;-75
2023/05/21 04:01:44;;;;;;;;;;;;;;;12.98;63.68;92457.78;2054745;70;20139;-75
2023/05/21 04:04:11;;;;;;;;;;;;;;;12.52;65.04;92462.59;2050811;70;20058;-76
2023/05/21 04:06:37;;;;;;;;;;;;;;;13.00;62.90;92462.78;2051002;70;20509;-75
2023/05/21 04:09:03;;;;;;;;;;;;;;;13.05;62.83;92455.97;2050280;70;20422;-75
2023/05/21 04:11:30;;;;;;;;;;;;;;;13.14;62.84;92466.28;2050360;70;20082;-75
2023/05/21 04:13:55;;;;;;;;;;;;;;;13.19;62.58;92467.94;2051045;69;20066;-76
2023/05/21 04:16:23;;;;;;;;;;;;;;;13.21;62.73;92476.53;2050998;70;20046;-76
2023/05/21 04:18:49;;;;;;;;;;;;;;;13.27;62.60;92462.69;2050323;70;20066;-75
2023/05/21 04:21:15;;;;;;;;;;;;;;;13.32;63.03;92466.44;2050397;70;20422;-76
2023/05/21 04:23:40;;;;;;;;;;;;;;;12.57;65.11;92466.38;2050988;69;20091;-75
2023/05/21 04:26:15;;;;;;;;;;;;;;;12.95;64.53;92473.16;2050300;70;20134;-75
2023/05/21 04:28:41;;;;;;;;;;;;;;;13.28;63.38;92472.63;2050607;70;20058;-75
2023/05/21 04:31:08;;;;;;;;;;;;;;;13.47;61.63;92474.25;2050587;70;20067;-75
2023/05/21 04:33:34;;;;;;;;;;;;;;;13.54;61.58;92480.91;2050473;70;20047;-76
2023/05/21 04:36:00;;;;;;;;;;;;;;;13.52;62.57;92487.19;2051384;70;20086;-75
2023/05/21 04:38:26;;;;;;;;;;;;;;;13.42;63.33;92486.69;2050573;70;20180;-75
2023/05/21 04:40:52;;;;;;;;;;;;;;;13.44;63.56;92489.63;2053332;70;20057;-76
2023/05/21 04:43:24;;;;;;;;;;;;;;;13.70;61.28;92481.66;2051072;70;20047;-76
2023/05/21 04:45:50;;;;;;;;;;;;;;;13.31;63.07;92496.09;2050661;70;20058;-76
2023/05/21 04:48:16;;;;;;;;;;;;;;;13.54;62.18;92495.75;2053527;70;20078;-75
2023/05/21 04:50:42;;;;;;;;;;;;;;;13.64;62.67;92484.19;2051225;70;20066;-75
2023/05/21 04:53:07;;;;;;;;;;;;;;;13.78;61.48;92486.94;2050549;70;20057;-75
2023/05/21 04:55:38;;;;;;;;;;;;;;;13.68;61.77;92487.94;2050717;70;20051;-75
2023/05/21 04:58:05;;;;;;;;;;;;;;;13.81;61.53;92483.56;2051300;70;20487;-76
2023/05/21 05:00:30;;;;;;;;;;;;;;;13.94;62.08;92476.34;2050574;70;20054;-76
2023/05/21 05:02:56;;;;;;;;;;;;;;;13.94;62.25;92476.34;2050891;70;20074;-76
2023/05/21 05:05:21;;;;;;;;;;;;;;;14.07;61.29;92483.31;2050810;70;20054;-75
2023/05/21 05:07:47;;;;;;;;;;;;;;;14.03;61.80;92497.25;2050698;70;20051;-75
2023/05/21 05:10:12;;;;;;;;;;;;;;;13.84;62.15;92487.97;2051501;70;20043;-75
2023/05/21 05:12:38;;;;;;;;;;;;;;;13.91;61.51;92494.59;2050705;70;20058;-75
2023/05/21 05:15:03;;;;;;;;;;;;;;;13.97;60.77;92495.63;2050765;70;20047;-75
2023/05/21 05:17:29;;;;;;;;;;;;;;;13.82;62.16;92490.69;2050827;69;20051;-75
2023/05/21 05:19:56;;;;;;;;;;;;;;;14.06;61.68;92498.81;2050773;70;20071;-75
2023/05/21 05:22:22;;;;;;;;;;;;;;;14.27;61.05;92492.66;2050821;70;20062;-76
2023/05/21 05:24:47;;;;;;;;;;;;;;;14.40;61.17;92488.28;2050812;70;20054;-77
2023/05/21 05:27:12;;;;;;;;;;;;;;;14.54;60.85;92486.06;2053485;70;20120;-76
2023/05/21 05:29:39;;;;;;;;;;;;;;;14.76;58.99;92488.41;2051371;70;20047;-76
2023/05/21 05:32:04;;;;;;;;;;;;;;;14.62;60.28;92482.88;2051445;70;20049;-75
2023/05/21 05:34:30;;;;;;;;;;;;;;;14.79;60.32;92487.81;2053575;70;20105;-75
2023/05/21 05:36:56;;;;;;;;;;;;;;;14.89;59.68;92488.25;2050632;70;20177;-76
2023/05/21 05:39:22;;;;;;;;;;;;;;;14.69;60.32;92490.25;2053389;70;20465;-74
2023/05/21 05:41:48;;;;;;;;;;;;;;;15.00;59.22;92481.63;2050752;70;20110;-74
2023/05/21 05:44:15;;;;;;;;;;;;;;;15.02;60.02;92483.81;2050758;70;20113;-77
2023/05/21 05:46:42;;;;;;;;;;;;;;;15.14;60.24;92487.16;2050830;70;20087;-75
2023/05/21 05:49:08;;;;;;;;;;;;;;;15.29;60.74;92476.38;2053481;70;20086;-75
2023/05/21 05:51:33;;;;;;;;;;;;;;;15.13;58.68;92465.84;2051269;70;20046;-76
2023/05/21 05:53:59;;;;;;;;;;;;;;;15.28;59.03;92477.75;2051845;70;20486;-75
2023/05/21 05:56:25;;;;;;;;;;;;;;;15.32;59.55;92466.56;2052672;70;20085;-75
2023/05/21 05:58:51;;;;;;;;;;;;;;;15.62;58.66;92462.06;2050633;70;20059;-73
2023/05/21 06:01:17;;;;;;;;;;;;;;;15.84;56.77;92467.91;2050687;70;20058;-75
2023/05/21 06:03:43;;;;;;;;;;;;;;;15.81;57.28;92477.72;2050662;70;20050;-76
2023/05/21 06:06:11;;;;;;;;;;;;;;;15.93;56.74;92475.34;2051692;70;20050;-74
2023/05/21 06:08:39;;;;;;;;;;;;;;;16.13;57.24;92461.16;2051765;70;20050;-74
2023/05/21 06:11:04;;;;;;;;;;;;;;;16.21;57.76;92469.97;2051779;70;20058;-75
2023/05/21 06:13:30;;;;;;;;;;;;;;;16.02;57.65;92470.69;2052356;69;20047;-74
2023/05/21 06:15:56;;;;;;;;;;;;;;;16.05;56.08;92474.34;2051709;70;20085;-74
2023/05/21 06:18:21;;;;;;;;;;;;;;;15.75;56.99;92468.97;2052289;70;20043;-75
2023/05/21 06:20:47;;;;;;;;;;;;;;;15.63;56.93;92466.38;2052345;70;20057;-74
2023/05/21 06:23:13;;;;;;;;;;;;;;;16.23;54.32;92470.06;2051721;70;20050;-75
2023/05/21 06:25:40;;;;;;;;;;;;;;;16.42;54.99;92471.44;2051815;70;20055;-75
2023/05/21 06:28:06;;;;;;;;;;;;;;;16.57;54.61;92463.41;2051622;70;20074;-75
2023/05/21 06:30:34;;;;;;;;;;;;;;;16.69;55.23;92458.88;2051697;70;20435;-75
2023/05/21 06:32:59;;;;;;;;;;;;;;;16.59;54.60;92457.81;2051693;70;20046;-76
2023/05/21 06:35:25;;;;;;;;;;;;;;;16.55;55.34;92455.56;2051654;70;20051;-77
2023/05/21 06:37:51;;;;;;;;;;;;;;;16.79;55.21;92457.81;2051594;70;20084;-75
2023/05/21 06:40:16;;;;;;;;;;;;;;;16.83;55.62;92457.94;2051646;70;20117;-75
2023/05/21 06:42:42;;;;;;;;;;;;;;;16.85;57.56;92464.41;2051558;70;20483;-75
2023/05/21 06:45:26;;;;;;;;;;;;;;;17.00;56.72;92454.97;2052269;70;20081;-75
2023/05/21 06:47:56;;;;;;;;;;;;;;;16.98;57.15;92465.53;2051784;70;20099;-75
2023/05/21 06:50:22;;;;;;;;;;;;;;;17.09;58.19;92453.13;2051595;70;20055;-75
2023/05/21 06:52:48;;;;;;;;;;;;;;;17.08;58.53;92465.16;2051597;70;20050;-75
2023/05/21 06:55:13;;;;;;;;;;;;;;;17.23;55.34;92464.97;2052656;70;20082;-75
2023/05/21 06:57:57;;;;;;;;;;;;;;;17.34;56.95;92468.13;2051427;70;20051;-75
2023/05/21 07:00:23;;;;;;;;;;;;;;;17.37;56.85;92470.38;2054352;70;20060;-75
2023/05/21 07:02:48;;;;;;;;;;;;;;;17.56;55.27;92468.84;2054338;70;20082;-74
2023/05/21 07:05:14;;;;;;;;;;;;;;;17.64;53.46;92465.50;2054429;70;20058;-75
2023/05/21 07:07:40;;;;;;;;;;;;;;;17.42;52.42;92471.97;2051628;70;20080;-74
2023/05/21 07:10:05;;;;;;;;;;;;;;;17.67;52.28;92472.72;2051552;70;20259;-75
2023/05/21 07:12:31;;;;;;;;;;;;;;;17.68;52.83;92474.16;2051557;70;20059;-75
2023/05/21 07:14:56;;;;;;;;;;;;;;;17.88;54.70;92466.28;2051653;70;20042;-75
2023/05/21 07:17:22;;;;;;;;;;;;;;;17.94;51.83;92457.19;2050752;70;20509;-75
2023/05/21 07:19:48;;;;;;;;;;;;;;;18.02;53.07;92461.00;2050982;70;20156;-75
2023/05/21 07:22:13;;;;;;;;;;;;;;;18.13;54.58;92467.72;2050990;70;20301;-74
2023/05/21 07:24:39;;;;;;;;;;;;;;;18.18;53.66;92460.03;2053838;70;20146;-74
2023/05/21 07:27:05;;;;;;;;;;;;;;;18.25;54.34;92456.69;2051444;69;20043;-74
2023/05/21 07:29:32;;;;;;;;;;;;;;;18.56;55.52;92449.00;2053815;70;20122;-75
2023/05/21 07:31:58;;;;;;;;;;;;;;;18.65;53.70;92449.94;2051051;70;20093;-75
2023/05/21 07:34:24;;;;;;;;;;;;;;;18.46;50.85;92443.75;2051092;70;20043;-75
2023/05/21 07:36:50;;;;;;;;;;;;;;;18.77;51.12;92444.56;2050974;70;20444;-75
2023/05/21 07:39:15;;;;;;;;;;;;;;;19.04;53.46;92440.28;2053520;70;20050;-77
2023/05/21 07:41:41;;;;;;;;;;;;;;;19.24;50.90;92443.66;2050975;70;20047;-76
2023/05/21 07:44:08;;;;;;;;;;;;;;;19.19;49.90;92442.09;2050916;70;20085;-75
2023/05/21 07:46:39;;;;;;;;;;;;;;;19.43;49.69;92439.13;2050946;70;20137;-76
2023/05/21 07:49:04;;;;;;;;;;;;;;;19.67;52.68;92438.25;2051026;70;20113;-75
2023/05/21 07:51:30;;;;;;;;;;;;;;;19.89;52.02;92443.75;2050906;70;20055;-75
2023/05/21 07:53:57;;;;;;;;;;;;;;;20.24;47.53;92437.34;2050958;70;20144;-75
2023/05/21 07:56:31;;;;;;;;;;;;;;;20.13;45.42;92438.56;2051439;70;20054;-75
2023/05/21 07:58:56;;;;;;;;;;;;;;;20.36;46.29;92441.88;2051569;69;20082;-75
2023/05/21 08:01:23;;;;;;;;;;;;;;;20.55;42.78;92432.28;2051024;70;20043;-75
2023/05/21 08:03:49;;;;;;;;;;;;;;;20.98;44.03;92427.34;2050979;70;20053;-75
2023/05/21 08:06:15;;;;;;;;;;;;;;;21.19;38.92;92425.56;2050871;70;20054;-76
2023/05/21 08:08:40;;;;;;;;;;;;;;;21.38;40.10;92430.22;2053716;70;20047;-75
2023/05/21 08:11:06;;;;;;;;;;;;;;;21.58;40.67;92426.97;2051269;70;20070;-75
2023/05/21 08:13:33;;;;;;;;;;;;;;;21.39;40.21;92423.06;2050752;70;20063;-76
2023/05/21 08:15:58;;;;;;;;;;;;;;;21.41;40.81;92420.25;2050822;70;20100;-76
2023/05/21 08:18:26;;;;;;;;;;;;;;;21.53;39.81;92419.69;2050851;70;20082;-76
2023/05/21 08:20:54;;;;;;;;;;;;;;;22.21;39.88;92418.56;2050774;70;20050;-76
2023/05/21 08:23:22;;;;;;;;;;;;;;;22.51;39.96;92426.84;2051401;70;20046;-76
2023/05/21 08:25:52;;;;;;;;;;;;;;;23.01;39.95;92423.09;2053470;70;20053;-76
2023/05/21 08:28:20;;;;;;;;;;;;;;;22.94;38.28;92421.59;2053346;70;20119;-75
2023/05/21 08:30:47;;;;;;;;;;;;;;;23.44;39.47;92424.22;2051532;69;20074;-75
2023/05/21 08:33:14;;;;;;;;;;;;;;;23.89;39.15;92415.97;2050971;70;20047;-75
2023/05/21 08:35:39;;;;;;;;;;;;;;;24.09;37.22;92413.22;2053654;70;20054;-76
2023/05/21 08:38:35;;;;;;;;;;;;;;;24.53;36.03;92411.31;2050741;70;20114;-76
2023/05/21 08:41:09;;;;;;;;;;;;;;;24.38;34.68;92416.28;2050743;70;20054;-76
2023/05/21 08:43:36;;;;;;;;;;;;;;;24.49;33.98;92414.16;2053518;70;20491;-76
2023/05/21 08:46:03;;;;;;;;;;;;;;;23.96;34.29;92410.97;2050733;70;20057;-76
2023/05/21 08:48:31;;;;;;;;;;;;;;;24.74;34.64;92409.97;2048034;70;20461;-76
2023/05/21 08:50:57;;;;;;;;;;;;;;;24.81;33.21;92407.81;2053372;70;20578;-76
2023/05/21 08:53:31;;;;;;;;;;;;;;;24.29;34.57;92403.28;2053475;70;20088;-77
2023/05/21 08:55:58;;;;;;;;;;;;;;;24.88;34.76;92400.66;2048000;70;20079;-76
2023/05/21 08:58:41;;;;;;;;;;;;;;;25.57;35.44;92409.41;2050753;70;20102;-76
2023/05/21 09:01:07;;;;;;;;;;;;;;;25.06;32.55;92402.81;2050822;70;20094;-79
2023/05/21 09:03:39;;;;;;;;;;;;;;;25.23;33.74;92401.44;2051297;70;20078;-77
2023/05/21 09:06:08;;;;;;;;;;;;;;;25.52;30.96;92402.22;2050892;70;20169;-77
2023/05/21 09:08:41;;;;;;;;;;;;;;;24.86;32.39;92397.75;2048173;70;20051;-79
2023/05/21 09:11:15;;;;;;;;;;;;;;;25.71;31.99;92394.28;2050706;70;20054;-77
2023/05/21 09:13:47;;;;;;;;;;;;;;;26.82;33.18;92403.41;2053517;70;20527;-77
2023/05/21 09:16:21;;;;;;;;;;;;;;;27.02;29.70;92406.19;2051406;70;20057;-77
2023/05/21 09:18:49;;;;;;;;;;;;;;;26.52;30.69;92401.38;2048161;70;20087;-77
2023/05/21 09:21:28;;;;;;;;;;;;;;;27.38;32.75;92398.78;2050800;70;20253;-77
2023/05/21 09:24:09;;;;;;;;;;;;;;;28.20;31.12;92401.75;2050856;70;20498;-77
2023/05/21 09:26:56;;;;;;;;;;;;;;;28.28;30.11;92395.16;2050811;70;20047;-77
2023/05/21 09:29:26;;;;;;;;;;;;;;;28.16;30.21;92398.88;2050817;70;20046;-77
2023/05/21 09:31:53;;;;;;;;;;;;;;;28.15;28.71;92400.34;2050948;70;20050;-77
2023/05/21 09:34:19;;;;;;;;;;;;;;;28.06;27.68;92399.00;2050705;70;20155;-77
2023/05/21 09:36:47;;;;;;;;;;;;;;;28.88;27.05;92398.84;2053508;70;20114;-77
2023/05/21 09:39:28;;;;;;;;;;;;;;;29.05;28.27;92391.41;2050394;70;20066;-77
2023/05/21 09:41:57;;;;;;;;;;;;;;;29.33;26.25;92392.47;2053455;70;20066;-77
2023/05/21 09:44:25;;;;;;;;;;;;;;;29.71;29.24;92391.19;2050675;70;20054;-77
2023/05/21 09:46:56;;;;;;;;;;;;;;;28.66;29.29;92373.78;2053519;70;20059;-77
2023/05/21 09:49:25;;;;;;;;;;;;;;;29.20;26.06;92382.53;2050874;70;20450;-77
2023/05/21 09:52:00;;;;;;;;;;;;;;;28.06;27.33;92376.56;2050709;70;20141;-77
2023/05/21 09:54:29;;;;;;;;;;;;;;;29.05;28.17;92382.72;2051262;70;20539;-77
2023/05/21 09:56:55;;;;;;;;;;;;;;;29.72;27.19;92368.72;2051114;70;20042;-76
2023/05/21 09:59:21;;;;;;;;;;;;;;;29.69;25.81;92378.91;2051373;70;20145;-76
2023/05/21 10:01:49;;;;;;;;;;;;;;;29.56;25.06;92376.22;2051230;70;20161;-76
2023/05/21 10:04:14;;;;;;;;;;;;;;;30.73;25.97;92368.38;2051350;70;20058;-76
2023/05/21 10:06:41;;;;;;;;;;;;;;;31.17;25.78;92366.03;2051381;70;20047;-76
2023/05/21 10:09:09;;;;;;;;;;;;;;;30.02;25.87;92353.69;2053617;70;20078;-76
2023/05/21 10:11:36;;;;;;;;;;;;;;;31.21;24.52;92360.13;2051161;70;20063;-76
2023/05/21 10:14:02;;;;;;;;;;;;;;;31.95;24.49;92362.78;2051195;70;20488;-76
2023/05/21 10:16:31;;;;;;;;;;;;;;;31.65;24.99;92361.28;2051189;70;20062;-77
2023/05/21 10:18:56;;;;;;;;;;;;;;;32.58;23.46;92355.34;2051011;70;20050;-76
2023/05/21 10:21:22;;;;;;;;;;;;;;;33.08;23.03;92361.25;2051275;70;20410;-76
2023/05/21 10:23:50;;;;;;;;;;;;;;;32.40;21.90;92358.03;2054047;70;20454;-76
2023/05/21 10:26:22;;;;;;;;;;;;;;;33.18;22.14;92357.31;2054442;69;20058;-77
2023/05/21 10:28:52;;;;;;;;;;;;;;;33.88;20.88;92356.59;2054377;69;20094;-76
2023/05/21 10:31:22;;;;;;;;;;;;;;;34.32;21.20;92341.31;2054451;69;20061;-78
2023/05/21 10:33:52;;;;;;;;;;;;;;;32.92;19.51;92341.28;2054439;70;20145;-77
2023/05/21 10:36:18;;;;;;;;;;;;;;;32.61;19.35;92333.38;2054520;69;20078;-76
2023/05/21 10:38:44;;;;;;;;;;;;;;;34.63;19.86;92332.19;2049741;70;20054;-76
2023/05/21 10:41:11;;;;;;;;;;;;;;;32.29;21.18;92343.69;2047779;70;20074;-76
2023/05/21 10:43:38;;;;;;;;;;;;;;;35.75;19.42;92341.94;2047040;70;20449;-77
2023/05/21 10:46:06;;;;;;;;;;;;;;;33.31;18.38;92354.72;2047189;70;20125;-77
2023/05/21 10:48:38;;;;;;;;;;;;;;;33.73;17.85;92343.97;2047245;70;20400;-76
2023/05/21 10:51:19;;;;;;;;;;;;;;;36.93;15.83;92351.69;2047954;70;20095;-76
2023/05/21 10:54:05;;;;;;;;;;;;;;;35.01;17.46;92349.88;2048280;70;20051;-76
2023/05/21 10:56:35;;;;;;;;;;;;;;;36.18;16.41;92355.56;2048083;70;20443;-77
2023/05/21 10:59:20;;;;;;;;;;;;;;;35.47;15.88;92347.41;2048110;70;20054;-77
2023/05/21 11:01:51;;;;;;;;;;;;;;;35.99;16.94;92357.81;2048210;70;20075;-76
2023/05/21 11:04:27;;;;;;;;;;;;;;;36.66;15.27;92346.25;2048594;70;20047;-76
2023/05/21 11:06:53;;;;;;;;;;;;;;;35.77;15.14;92359.41;2048769;70;20054;-76
2023/05/21 11:09:18;;;;;;;;;;;;;;;36.11;15.76;92354.41;2048346;70;20051;-76
2023/05/21 11:11:49;;;;;;;;;;;;;;;37.04;15.44;92357.78;2048139;70;20047;-76
2023/05/21 11:14:39;;;;;;;;;;;;;;;37.40;15.62;92364.25;2048227;70;20070;-76
2023/05/21 11:17:08;;;;;;;;;;;;;;;32.66;17.52;92356.59;2048271;70;20051;-76
2023/05/21 11:19:35;;;;;;;;;;;;;;;34.37;17.28;92369.59;2048223;70;20106;-76
2023/05/21 11:22:03;;;;;;;;;;;;;;;31.91;18.33;92359.25;2048292;70;20126;-76
2023/05/21 11:24:31;;;;;;;;;;;;;;;31.89;18.64;92360.03;2048291;70;20142;-75
2023/05/21 11:27:01;;;;;;;;;;;;;;;33.77;17.47;92360.59;2047626;70;20086;-76
2023/05/21 11:29:39;;;;;;;;;;;;;;;35.29;16.91;92345.88;2048231;70;20055;-76
2023/05/21 11:32:05;;;;;;;;;;;;;;;38.50;14.70;92361.94;2047629;70;20091;-76
2023/05/21 11:34:41;;;;;;;;;;;;;;;36.81;15.82;92366.84;2047975;70;20074;-76
2023/05/21 11:37:39;;;;;;;;;;;;;;;37.91;14.93;92358.22;2047672;70;20098;-75
2023/05/21 11:40:24;;;;;;;;;;;;;;;39.29;14.88;92362.31;2047920;70;20205;-76
2023/05/21 11:42:51;;;;;;;;;;;;;;;38.97;13.23;92350.00;2047523;70;20062;-76
2023/05/21 11:45:18;;;;;;;;;;;;;;;38.75;14.27;92343.72;2048141;70;20141;-77
2023/05/21 11:47:43;;;;;;;;;;;;;;;38.31;14.66;92349.69;2048295;70;20051;-77
2023/05/21 11:50:13;;;;;;;;;;;;;;;35.97;15.98;92328.59;2047711;70;20047;-77
2023/05/21 11:52:43;;;;;;;;;;;;;;;33.83;16.96;92334.88;2048041;70;20055;-76
2023/05/21 11:55:14;;;;;;;;;;;;;;;33.05;17.52;92327.78;2047683;70;20463;-77
2023/05/21 11:57:46;;;;;;;;;;;;;;;35.30;16.69;92326.81;2048100;70;20055;-77
2023/05/21 12:00:16;;;;;;;;;;;;;;;36.84;15.74;92330.06;2048236;70;20079;-76
2023/05/21 12:02:43;;;;;;;;;;;;;;;37.93;15.64;92322.88;2047488;70;20086;-77
2023/05/21 12:05:09;;;;;;;;;;;;;;;35.79;16.33;92330.06;2047410;70;20051;-79
2023/05/21 12:07:34;;;;;;;;;;;;;;;36.90;14.68;92326.84;2048116;70;20076;-78
2023/05/21 12:10:00;;;;;;;;;;;;;;;34.48;16.90;92323.22;2047585;70;20088;-77
2023/05/21 12:12:27;;;;;;;;;;;;;;;32.90;17.89;92323.84;2048026;70;20047;-77
2023/05/21 12:14:53;;;;;;;;;;;;;;;36.71;15.63;92323.31;2047671;70;20047;-78
2023/05/21 12:17:22;;;;;;;;;;;;;;;36.19;15.59;92329.91;2047660;70;20227;-77
2023/05/21 12:19:52;;;;;;;;;;;;;;;37.44;15.35;92331.06;2047580;70;20503;-78
2023/05/21 12:22:18;;;;;;;;;;;;;;;38.39;14.51;92326.44;2048123;70;20506;-77
2023/05/21 12:24:47;;;;;;;;;;;;;;;37.53;14.34;92318.13;2048212;70;20059;-77
2023/05/21 12:27:15;;;;;;;;;;;;;;;39.58;13.73;92326.13;2047419;70;20062;-77
2023/05/21 12:29:43;;;;;;;;;;;;;;;39.38;12.94;92325.72;2047686;70;20058;-77
2023/05/21 12:32:11;;;;;;;;;;;;;;;39.81;12.96;92319.72;2048196;70;20424;-77
2023/05/21 12:34:43;;;;;;;;;;;;;;;39.51;13.28;92319.88;2048089;70;20491;-77
2023/05/21 12:37:10;;;;;;;;;;;;;;;39.86;13.61;92315.00;2048387;70;20067;-77
2023/05/21 12:39:41;;;;;;;;;;;;;;;38.28;13.91;92316.00;2047499;70;20067;-78
2023/05/21 12:42:07;;;;;;;;;;;;;;;39.19;13.43;92309.84;2048009;70;20070;-77
2023/05/21 12:44:33;;;;;;;;;;;;;;;38.05;15.18;92311.22;2047620;70;20086;-77
2023/05/21 12:47:00;;;;;;;;;;;;;;;34.74;15.71;92301.13;2048188;70;20467;-77
2023/05/21 12:49:31;;;;;;;;;;;;;;;34.51;16.24;92304.13;2048151;70;20134;-78
2023/05/21 12:51:57;;;;;;;;;;;;;;;33.93;16.97;92292.94;2048155;70;20078;-77